Glenview NAS, Illinois
Current Conditions -  °F | °C
As of 7:52 AM on Wednesday 26 Nov 2014 (Local Time) from KPWK Reporting Station
Haze Haze  
Wind Chill: 20°   Ceiling: 2100
Heat Index: 20°   Visibility: 4mi
Dew Point: 16°   Wind: 0mph
Humidity: 85%   Direction: NA
Pressure: 30.18"   Gusts: NA
Location:  42.09°N, 87.83°W
Report Text: KPWK 261352Z 00000KT 4SM BR BKN021 M07/M09 A3018 RMK AO2 SLP229 T10671089
Loading
Personal Weather Stations






























Interactive Weather Map New forecast layout! Learn more

10-Day Weather Forecast

Advertisements
Track Severe Weather on mobile